createdAt,value
2018-02-24T00:00:13.868Z,102263.39
2018-02-24T00:02:48.543Z,102260.30
2018-02-24T00:05:23.813Z,102260.74
2018-02-24T00:07:58.459Z,102269.16
2018-02-24T00:10:33.129Z,102273.99
2018-02-24T00:13:09.140Z,102275.75
2018-02-24T00:15:44.200Z,102262.55
2018-02-24T00:18:19.196Z,102264.31
2018-02-24T00:20:54.266Z,102259.02
2018-02-24T00:23:29.192Z,102265.61
2018-02-24T00:26:04.271Z,102264.25
2018-02-24T00:28:39.331Z,102271.80
2018-02-24T00:31:14.358Z,102270.47
2018-02-24T00:33:49.364Z,102267.40
2018-02-24T00:36:24.219Z,102266.54
2018-02-24T00:38:59.283Z,102270.54
2018-02-24T00:41:34.613Z,102264.83
2018-02-24T00:44:09.723Z,102266.58
2018-02-24T00:46:45.177Z,102271.40
2018-02-24T00:49:19.752Z,102271.83
2018-02-24T00:51:54.795Z,102269.63
2018-02-24T00:54:30.039Z,102255.14
2018-02-24T00:57:05.324Z,102262.62
2018-02-24T00:59:40.615Z,102262.62
2018-02-24T01:02:14.814Z,102271.38
2018-02-24T01:04:50.275Z,102271.42
2018-02-24T01:07:25.611Z,102269.23
2018-02-24T01:10:00.784Z,102263.95
2018-02-24T01:12:36.067Z,102267.45
2018-02-24T01:15:10.675Z,102266.14
2018-02-24T01:17:45.852Z,102260.39
2018-02-24T01:20:21.087Z,102265.70
2018-02-24T01:22:55.595Z,102268.77
2018-02-24T01:25:30.763Z,102270.53
2018-02-24T01:28:05.187Z,102261.73
2018-02-24T01:30:40.451Z,102267.46
2018-02-24T01:33:15.659Z,102267.00
2018-02-24T01:35:50.547Z,102260.43
2018-02-24T01:38:24.970Z,102262.17
2018-02-24T01:40:59.743Z,102265.28
2018-02-24T01:43:34.263Z,102275.80
2018-02-24T01:46:09.382Z,102267.03
2018-02-24T01:48:44.348Z,102262.20
2018-02-24T01:51:19.614Z,102263.50
2018-02-24T01:53:54.776Z,102258.25
2018-02-24T01:56:30.315Z,102264.39
2018-02-24T01:59:05.527Z,102264.82
2018-02-24T02:01:40.616Z,102269.23
2018-02-24T02:04:15.303Z,102268.80
2018-02-24T02:06:49.695Z,102266.59
2018-02-24T02:09:24.746Z,102269.23
2018-02-24T02:12:00.009Z,102270.09
2018-02-24T02:14:35.383Z,102269.67
2018-02-24T02:17:10.533Z,102269.23
2018-02-24T02:19:45.575Z,102269.64
2018-02-24T02:22:21.379Z,102269.22
2018-02-24T02:24:55.835Z,102259.12
2018-02-24T02:27:31.399Z,102262.18
2018-02-24T02:30:06.608Z,102267.91
2018-02-24T02:32:41.447Z,102270.12
2018-02-24T02:35:15.823Z,102267.02
2018-02-24T02:37:50.593Z,102260.45
2018-02-24T02:40:25.437Z,102264.39
2018-02-24T02:43:00.463Z,102263.93
2018-02-24T02:45:35.017Z,102269.22
2018-02-24T02:48:10.066Z,102266.12
2018-02-24T02:50:44.873Z,102260.89
2018-02-24T02:53:19.756Z,102266.60
2018-02-24T02:55:54.729Z,102265.70
2018-02-24T02:58:29.613Z,102272.30
2018-02-24T03:01:04.566Z,102272.72
2018-02-24T03:03:39.723Z,102268.33
2018-02-24T03:06:15.447Z,102279.32
2018-02-24T03:08:50.586Z,102281.52
2018-02-24T03:11:26.115Z,102278.00
2018-02-24T03:14:01.113Z,102275.81
2018-02-24T03:16:35.663Z,102278.44
2018-02-24T03:19:10.959Z,102283.70
2018-02-24T03:21:45.795Z,102284.59
2018-02-24T03:24:21.051Z,102285.48
2018-02-24T03:26:56.551Z,102282.84
2018-02-24T03:29:31.663Z,102297.34
2018-02-24T03:32:06.019Z,102292.05
2018-02-24T03:34:41.259Z,102301.72
2018-02-24T03:37:16.830Z,102299.54
2018-02-24T03:39:51.948Z,102303.05
2018-02-24T03:42:26.440Z,102299.09
2018-02-24T03:45:00.956Z,102300.84
2018-02-24T03:47:35.736Z,102300.84
2018-02-24T03:50:10.867Z,102307.83
2018-02-24T03:52:45.590Z,102305.23
2018-02-24T03:55:20.655Z,102315.73
2018-02-24T03:57:55.668Z,102321.00
2018-02-24T04:00:30.671Z,102324.98
2018-02-24T04:03:05.057Z,102322.79
2018-02-24T04:05:40.267Z,102320.18
2018-02-24T04:08:15.691Z,102324.09
2018-02-24T04:10:50.852Z,102325.84
2018-02-24T04:13:25.896Z,102324.06
2018-02-24T04:16:00.515Z,102328.47
2018-02-24T04:18:35.811Z,102329.79
2018-02-24T04:21:10.848Z,102325.42
2018-02-24T04:23:45.848Z,102327.14
2018-02-24T04:26:21.019Z,102326.27
2018-02-24T04:28:55.999Z,102324.05
2018-02-24T04:31:30.691Z,102331.96
2018-02-24T04:34:05.840Z,102332.80
2018-02-24T04:36:41.003Z,102334.52
2018-02-24T04:39:15.755Z,102333.16
2018-02-24T04:41:50.944Z,102333.13
2018-02-24T04:44:26.049Z,102343.24
2018-02-24T04:47:00.511Z,102350.27
2018-02-24T04:49:34.956Z,102346.74
2018-02-24T04:52:10.119Z,102345.44
2018-02-24T04:54:45.160Z,102345.43
2018-02-24T04:57:20.654Z,102339.31
2018-02-24T04:59:55.867Z,102342.86
2018-02-24T05:02:31.028Z,102345.50
2018-02-24T05:05:05.772Z,102348.99
2018-02-24T05:07:40.855Z,102349.86
2018-02-24T05:10:16.032Z,102360.33
2018-02-24T05:12:50.387Z,102359.39
2018-02-24T05:15:25.135Z,102357.65
2018-02-24T05:18:00.648Z,102365.63
2018-02-24T05:20:35.145Z,102361.27
2018-02-24T05:23:10.688Z,102366.06
2018-02-24T05:25:45.790Z,102366.52
2018-02-24T05:28:20.358Z,102358.61
2018-02-24T05:30:55.234Z,102360.84
2018-02-24T05:33:29.931Z,102360.80
2018-02-24T05:36:04.607Z,102362.94
2018-02-24T05:38:39.911Z,102366.00
2018-02-24T05:41:15.076Z,102362.52
2018-02-24T05:43:50.299Z,102367.84
2018-02-24T05:46:26.092Z,102375.81
2018-02-24T05:49:00.859Z,102378.87
2018-02-24T05:51:35.643Z,102384.16
2018-02-24T05:54:10.341Z,102378.42
2018-02-24T05:56:45.307Z,102381.92
2018-02-24T05:59:20.980Z,102378.04
2018-02-24T06:01:55.768Z,102388.55
2018-02-24T06:04:30.811Z,102396.83
2018-02-24T06:07:05.423Z,102401.62
2018-02-24T06:09:40.282Z,102402.94
2018-02-24T06:12:14.944Z,102402.98
2018-02-24T06:14:49.879Z,102416.08
2018-02-24T06:17:25.134Z,102413.88
2018-02-24T06:20:00.401Z,102424.48
2018-02-24T06:22:35.688Z,102431.06
2018-02-24T06:25:10.387Z,102431.53
2018-02-24T06:27:45.925Z,102428.91
2018-02-24T06:30:20.879Z,102433.22
2018-02-24T06:32:55.355Z,102427.98
2018-02-24T06:35:30.392Z,102437.20
2018-02-24T06:38:05.835Z,102446.38
2018-02-24T06:40:40.830Z,102445.55
2018-02-24T06:43:16.029Z,102442.49
2018-02-24T06:45:51.104Z,102436.36
2018-02-24T06:48:26.179Z,102443.81
2018-02-24T06:51:01.183Z,102445.15
2018-02-24T06:53:35.524Z,102439.06
2018-02-24T06:56:10.391Z,102447.02
2018-02-24T06:58:45.432Z,102446.13
2018-02-24T07:01:20.522Z,102452.77
2018-02-24T07:03:55.123Z,102453.25
2018-02-24T07:06:30.431Z,102449.73
2018-02-24T07:09:05.982Z,102456.33
2018-02-24T07:11:41.192Z,102441.88
2018-02-24T07:14:15.547Z,102455.09
2018-02-24T07:16:50.098Z,102452.05
2018-02-24T07:19:26.117Z,102453.81
2018-02-24T07:22:00.911Z,102450.31
2018-02-24T07:24:35.944Z,102450.77
2018-02-24T07:27:11.308Z,102459.14
2018-02-24T07:29:46.191Z,102459.59
2018-02-24T07:32:21.432Z,102460.87
2018-02-24T07:38:42.203Z,102462.22
2018-02-24T07:41:17.504Z,102462.64
2018-02-24T07:43:52.071Z,102460.89
2018-02-24T07:46:27.615Z,102469.66
2018-02-24T07:49:02.722Z,102469.23
2018-02-24T07:51:38.223Z,102469.23
2018-02-24T07:54:13.334Z,102467.92
2018-02-24T07:56:48.405Z,102471.90
2018-02-24T07:59:25.850Z,102472.32
2018-02-24T08:02:01.264Z,102481.58
2018-02-24T08:04:36.335Z,102479.38
2018-02-24T08:07:10.971Z,102477.63
2018-02-24T08:09:49.830Z,102471.91
2018-02-24T08:12:24.419Z,102478.05
2018-02-24T08:14:59.076Z,102471.46
2018-02-24T08:17:34.667Z,102474.99
2018-02-24T08:20:09.931Z,102480.69
2018-02-24T08:22:45.079Z,102486.87
2018-02-24T08:25:20.555Z,102479.80
2018-02-24T08:27:55.152Z,102482.86
2018-02-24T08:30:30.199Z,102478.43
2018-02-24T08:33:05.106Z,102475.77
2018-02-24T08:35:40.932Z,102480.09
2018-02-24T08:38:16.080Z,102482.32
2018-02-24T08:40:51.230Z,102490.24
2018-02-24T08:43:26.839Z,102497.28
2018-02-24T08:46:01.817Z,102484.02
2018-02-24T08:48:36.559Z,102482.23
2018-02-24T08:51:10.995Z,102487.11
2018-02-24T08:53:45.651Z,102495.01
2018-02-24T08:56:20.715Z,102495.85
2018-02-24T08:58:55.822Z,102499.41
2018-02-24T09:01:30.931Z,102494.54
2018-02-24T09:04:06.567Z,102491.41
2018-02-24T09:06:41.523Z,102502.00
2018-02-24T09:09:16.315Z,102505.13
2018-02-24T09:11:50.880Z,102509.56
2018-02-24T09:14:25.227Z,102511.28
2018-02-24T09:17:00.115Z,102509.06
2018-02-24T09:19:35.226Z,102513.48
2018-02-24T09:22:10.700Z,102506.86
2018-02-24T09:24:46.011Z,102511.59
2018-02-24T09:27:20.721Z,102512.91
2018-02-24T09:29:56.165Z,102509.89
2018-02-24T09:32:31.044Z,102517.78
2018-02-24T09:35:05.800Z,102518.13
2018-02-24T09:37:40.937Z,102526.89
2018-02-24T09:40:15.399Z,102524.23
2018-02-24T09:42:50.315Z,102526.89
2018-02-24T09:45:25.331Z,102525.09
2018-02-24T09:48:00.884Z,102532.45
2018-02-24T09:50:36.135Z,102535.08
2018-02-24T09:53:10.858Z,102524.79
2018-02-24T09:55:45.245Z,102526.64
2018-02-24T09:58:20.396Z,102523.62
2018-02-24T10:00:55.791Z,102523.16
2018-02-24T10:03:31.241Z,102527.10
2018-02-24T10:06:06.828Z,102533.19
2018-02-24T10:08:42.533Z,102541.08
2018-02-24T10:11:17.940Z,102527.38
2018-02-24T10:13:54.432Z,102528.64
2018-02-24T10:16:29.204Z,102525.42
2018-02-24T10:19:03.880Z,102528.32
2018-02-24T10:21:39.166Z,102523.61
2018-02-24T10:24:14.012Z,102531.84
2018-02-24T10:26:49.907Z,102521.98
2018-02-24T10:29:25.298Z,102527.32
2018-02-24T10:31:59.947Z,102523.91
2018-02-24T10:34:35.181Z,102529.19
2018-02-24T10:37:10.380Z,102520.80
2018-02-24T10:39:44.942Z,102528.56
2018-02-24T10:42:19.407Z,102523.59
2018-02-24T10:44:54.268Z,102522.38
2018-02-24T10:47:30.251Z,102525.70
2018-02-24T10:50:05.983Z,102522.46
2018-02-24T10:52:41.216Z,102521.61
2018-02-24T10:55:16.481Z,102524.09
2018-02-24T10:57:52.059Z,102512.27
2018-02-24T11:00:27.295Z,102518.97
2018-02-24T11:03:02.168Z,102521.09
2018-02-24T11:05:37.299Z,102508.77
2018-02-24T11:08:13.375Z,102523.85
2018-02-24T11:10:48.092Z,102523.50
2018-02-24T11:13:23.719Z,102518.11
2018-02-24T11:15:58.524Z,102518.24
2018-02-24T11:18:34.091Z,102522.17
2018-02-24T11:21:09.188Z,102520.09
2018-02-24T11:23:44.279Z,102506.63
2018-02-24T11:26:19.591Z,102511.41
2018-02-24T11:28:54.579Z,102514.58
2018-02-24T11:31:29.383Z,102506.84
2018-02-24T11:34:04.480Z,102509.52
2018-02-24T11:36:39.613Z,102511.19
2018-02-24T11:39:14.580Z,102516.20
2018-02-24T11:41:50.272Z,102517.42
2018-02-24T11:44:25.944Z,102523.02
2018-02-24T11:47:01.120Z,102522.25
2018-02-24T11:49:36.414Z,102518.77
2018-02-24T11:52:11.476Z,102517.34
2018-02-24T11:54:46.148Z,102518.81
2018-02-24T11:57:20.512Z,102514.34
2018-02-24T11:59:55.754Z,102517.98
2018-02-24T12:02:31.431Z,102511.40
2018-02-24T12:05:06.431Z,102509.94
2018-02-24T12:07:41.524Z,102508.13
2018-02-24T12:10:16.104Z,102511.70
2018-02-24T12:12:51.287Z,102511.72
2018-02-24T12:15:26.557Z,102502.50
2018-02-24T12:18:01.607Z,102506.92
2018-02-24T12:20:36.728Z,102515.64
2018-02-24T12:23:11.371Z,102512.22
2018-02-24T12:25:46.403Z,102507.48
2018-02-24T12:28:21.422Z,102510.62
2018-02-24T12:30:56.324Z,102516.30
2018-02-24T12:33:31.512Z,102504.51
2018-02-24T12:36:06.797Z,102504.45
2018-02-24T12:38:41.287Z,102492.25
2018-02-24T12:41:16.519Z,102484.20
2018-02-24T12:43:51.628Z,102477.81
2018-02-24T12:46:27.576Z,102485.01
2018-02-24T12:49:03.342Z,102484.23
2018-02-24T12:51:38.578Z,102471.27
2018-02-24T12:54:13.794Z,102462.78
2018-02-24T12:56:48.394Z,102468.77
2018-02-24T12:59:23.644Z,102463.23
2018-02-24T13:01:58.619Z,102467.56
2018-02-24T13:04:33.623Z,102462.19
2018-02-24T13:07:08.475Z,102467.77
2018-02-24T13:09:43.368Z,102473.86
2018-02-24T13:12:18.372Z,102462.47
2018-02-24T13:14:52.819Z,102464.06
2018-02-24T13:17:27.491Z,102472.94
2018-02-24T13:20:02.316Z,102463.56
2018-02-24T13:22:37.454Z,102463.31
2018-02-24T13:25:14.013Z,102473.86
2018-02-24T13:27:49.912Z,102464.94
2018-02-24T13:30:25.364Z,102466.45
2018-02-24T13:33:00.068Z,102468.08
2018-02-24T13:35:34.503Z,102457.39
2018-02-24T13:38:13.207Z,102451.33
2018-02-24T13:40:47.680Z,102465.29
2018-02-24T13:43:22.325Z,102463.27
2018-02-24T13:45:58.077Z,102460.59
2018-02-24T13:48:33.443Z,102465.88
2018-02-24T13:51:08.403Z,102464.23
2018-02-24T13:53:43.651Z,102463.55
2018-02-24T13:56:18.259Z,102461.47
2018-02-24T13:58:53.423Z,102461.79
2018-02-24T14:01:28.350Z,102462.94
2018-02-24T14:04:02.976Z,102464.01
2018-02-24T14:06:38.654Z,102466.00
2018-02-24T14:09:13.884Z,102465.83
2018-02-24T14:11:48.444Z,102454.61
2018-02-24T14:14:23.724Z,102465.47
2018-02-24T14:16:58.856Z,102477.95
2018-02-24T14:19:33.847Z,102477.02
2018-02-24T14:22:09.115Z,102473.30
2018-02-24T14:24:43.987Z,102462.12
2018-02-24T14:27:18.843Z,102459.08
2018-02-24T14:29:53.539Z,102464.22
2018-02-24T14:32:28.755Z,102461.69
2018-02-24T14:35:03.644Z,102477.02
2018-02-24T14:37:38.787Z,102464.77
2018-02-24T14:40:13.923Z,102472.79
2018-02-24T14:42:48.632Z,102478.01
2018-02-24T14:45:23.611Z,102471.50
2018-02-24T14:47:58.622Z,102468.75
2018-02-24T14:50:33.951Z,102469.44
2018-02-24T14:53:08.736Z,102477.92
2018-02-24T14:55:43.708Z,102473.45
2018-02-24T14:58:18.879Z,102472.01
2018-02-24T15:00:53.868Z,102477.19
2018-02-24T15:03:28.760Z,102476.80
2018-02-24T15:06:03.475Z,102487.02
2018-02-24T15:08:38.623Z,102482.42
2018-02-24T15:11:13.847Z,102487.41
2018-02-24T15:13:48.587Z,102487.16
2018-02-24T15:16:23.819Z,102496.70
2018-02-24T15:18:58.843Z,102484.43
2018-02-24T15:21:33.792Z,102491.11
2018-02-24T15:24:08.883Z,102503.89
2018-02-24T15:26:44.068Z,102491.44
2018-02-24T15:29:18.881Z,102488.08
2018-02-24T15:31:53.227Z,102493.50
2018-02-24T15:34:28.083Z,102488.06
2018-02-24T15:37:02.728Z,102486.64
2018-02-24T15:39:38.155Z,102489.02
2018-02-24T15:42:12.924Z,102486.11
2018-02-24T15:44:47.915Z,102489.20
2018-02-24T15:47:23.052Z,102488.19
2018-02-24T15:49:57.835Z,102493.93
2018-02-24T15:52:33.084Z,102496.06
2018-02-24T15:55:08.228Z,102492.89
2018-02-24T15:57:43.879Z,102502.66
2018-02-24T16:00:18.959Z,102491.95
2018-02-24T16:02:54.208Z,102498.30
2018-02-24T16:05:29.381Z,102504.40
2018-02-24T16:08:04.037Z,102495.67
2018-02-24T16:10:39.384Z,102500.13
2018-02-24T16:13:13.942Z,102507.06
2018-02-24T16:15:49.019Z,102500.55
2018-02-24T16:18:23.865Z,102507.87
2018-02-24T16:20:59.036Z,102516.88
2018-02-24T16:23:34.076Z,102504.96
2018-02-24T16:26:09.070Z,102508.41
2018-02-24T16:28:44.112Z,102513.95
2018-02-24T16:31:19.248Z,102512.26
2018-02-24T16:33:54.223Z,102516.44
2018-02-24T16:36:29.498Z,102514.30
2018-02-24T16:39:03.904Z,102516.08
2018-02-24T16:41:38.384Z,102522.23
2018-02-24T16:44:13.679Z,102517.50
2018-02-24T16:46:48.287Z,102520.33
2018-02-24T16:49:22.984Z,102528.42
2018-02-24T16:51:58.327Z,102515.76
2018-02-24T16:54:33.483Z,102526.98
2018-02-24T16:57:08.531Z,102523.91
2018-02-24T16:59:43.396Z,102537.99
2018-02-24T17:02:18.380Z,102527.79
2018-02-24T17:04:53.107Z,102531.87
2018-02-24T17:07:28.124Z,102534.98
2018-02-24T17:10:03.391Z,102535.42
2018-02-24T17:12:38.304Z,102538.59
2018-02-24T17:15:13.247Z,102540.46
2018-02-24T17:17:48.547Z,102545.31
2018-02-24T17:20:24.209Z,102543.98
2018-02-24T17:22:59.352Z,102543.52
2018-02-24T17:25:34.527Z,102542.17
2018-02-24T17:28:09.631Z,102550.12
2018-02-24T17:30:45.245Z,102558.98
2018-02-24T17:33:20.367Z,102548.72
2018-02-24T17:35:55.571Z,102558.86
2018-02-24T17:38:30.588Z,102560.12
2018-02-24T17:41:05.771Z,102563.27
2018-02-24T17:43:41.467Z,102555.23
2018-02-24T17:46:16.190Z,102568.52
2018-02-24T17:48:51.340Z,102555.31
2018-02-24T17:51:26.730Z,102570.31
2018-02-24T17:54:01.828Z,102567.25
2018-02-24T17:56:37.471Z,102578.77
2018-02-24T17:59:12.335Z,102575.17
2018-02-24T18:01:47.639Z,102574.89
2018-02-24T18:04:22.548Z,102578.02
2018-02-24T18:06:57.559Z,102581.48
2018-02-24T18:09:32.650Z,102584.62
2018-02-24T18:12:07.334Z,102581.11
2018-02-24T18:14:42.432Z,102578.53
2018-02-24T18:17:17.300Z,102578.14
2018-02-24T18:19:52.394Z,102581.71
2018-02-24T18:22:26.737Z,102571.10
2018-02-24T18:25:01.455Z,102578.69
2018-02-24T18:27:36.476Z,102579.22
2018-02-24T18:30:11.617Z,102569.92
2018-02-24T18:32:46.781Z,102580.03
2018-02-24T18:35:22.630Z,102584.58
2018-02-24T18:37:57.267Z,102584.58
2018-02-24T18:40:32.677Z,102585.00
2018-02-24T18:43:07.876Z,102582.41
2018-02-24T18:45:43.320Z,102596.97
2018-02-24T18:48:18.068Z,102596.11
2018-02-24T18:50:53.432Z,102597.40
2018-02-24T18:53:28.475Z,102593.36
2018-02-24T18:56:03.700Z,102605.72
2018-02-24T18:58:38.701Z,102607.92
2018-02-24T19:01:13.840Z,102605.74
2018-02-24T19:03:48.834Z,102609.22
2018-02-24T19:06:23.472Z,102606.61
2018-02-24T19:08:59.887Z,102606.63
2018-02-24T19:11:35.432Z,102615.00
2018-02-24T19:14:10.264Z,102624.73
2018-02-24T19:16:44.765Z,102622.51
2018-02-24T19:19:19.484Z,102626.09
2018-02-24T19:21:54.700Z,102633.17
2018-02-24T19:24:29.685Z,102631.43
2018-02-24T19:27:04.312Z,102631.41
2018-02-24T19:29:39.259Z,102630.20
2018-02-24T19:32:13.915Z,102629.33
2018-02-24T19:34:48.644Z,102631.52
2018-02-24T19:37:23.911Z,102638.20
2018-02-24T19:39:59.065Z,102634.23
2018-02-24T19:42:33.995Z,102632.02
2018-02-24T19:45:08.567Z,102633.33
2018-02-24T19:47:43.508Z,102632.44
2018-02-24T19:50:18.520Z,102634.28
2018-02-24T19:52:53.812Z,102647.06
2018-02-24T19:55:29.044Z,102654.99
2018-02-24T19:58:04.074Z,102653.20
2018-02-24T20:00:39.522Z,102655.84
2018-02-24T20:03:14.649Z,102650.11
2018-02-24T20:05:49.743Z,102650.58
2018-02-24T20:08:24.617Z,102647.06
2018-02-24T20:10:59.372Z,102652.34
2018-02-24T20:13:35.633Z,102654.55
2018-02-24T20:22:36.245Z,102659.42
2018-02-24T20:25:11.488Z,102658.99
2018-02-24T20:27:46.704Z,102661.63
2018-02-24T20:30:21.659Z,102669.12
2018-02-24T20:32:56.651Z,102669.15
2018-02-24T20:35:31.527Z,102669.58
2018-02-24T20:38:05.982Z,102668.67
2018-02-24T20:40:41.629Z,102676.18
2018-02-24T20:43:16.660Z,102674.87
2018-02-24T20:45:51.620Z,102678.82
2018-02-24T20:48:27.016Z,102673.52
2018-02-24T20:51:01.684Z,102677.94
2018-02-24T20:53:36.436Z,102683.23
2018-02-24T20:56:11.172Z,102680.16
2018-02-24T20:58:45.564Z,102689.83
2018-02-24T21:01:20.548Z,102696.44
2018-02-24T21:03:55.999Z,102684.13
2018-02-24T21:06:31.027Z,102694.67
2018-02-24T21:09:05.596Z,102692.94
2018-02-24T21:11:40.310Z,102697.76
2018-02-24T21:14:15.713Z,102705.67
2018-02-24T21:16:50.823Z,102696.42
2018-02-24T21:19:27.051Z,102710.09
2018-02-24T21:22:02.635Z,102706.55
2018-02-24T21:24:37.841Z,102720.20
2018-02-24T21:27:12.597Z,102712.28
2018-02-24T21:29:47.774Z,102713.63
2018-02-24T21:32:23.160Z,102713.17
2018-02-24T21:34:57.523Z,102706.52
2018-02-24T21:37:32.471Z,102704.31
2018-02-24T21:40:07.072Z,102704.33
2018-02-24T21:42:41.694Z,102705.61
2018-02-24T21:45:16.795Z,102709.60
2018-02-24T21:47:51.771Z,102702.53
2018-02-24T21:50:27.129Z,102703.84
2018-02-24T21:53:01.799Z,102707.35
2018-02-24T21:55:37.072Z,102706.45
2018-02-24T21:58:11.941Z,102711.32
2018-02-24T22:00:46.880Z,102713.03
2018-02-24T22:03:21.822Z,102713.48
2018-02-24T22:05:56.792Z,102721.39
2018-02-24T22:08:31.124Z,102725.36
2018-02-24T22:11:06.155Z,102724.46
2018-02-24T22:13:42.019Z,102721.03
2018-02-24T22:16:16.970Z,102721.87
2018-02-24T22:18:52.167Z,102723.62
2018-02-24T22:21:27.325Z,102733.30
2018-02-24T22:24:01.988Z,102721.90
2018-02-24T22:26:37.316Z,102723.21
2018-02-24T22:29:11.857Z,102720.55
2018-02-24T22:31:47.067Z,102718.73
2018-02-24T22:34:22.793Z,102723.53
2018-02-24T22:36:57.451Z,102723.48
2018-02-24T22:39:32.988Z,102733.56
2018-02-24T22:42:07.884Z,102733.12
2018-02-24T22:44:42.353Z,102729.16
2018-02-24T22:47:16.883Z,102733.12
2018-02-24T22:49:52.131Z,102735.28
2018-02-24T22:52:27.288Z,102733.97
2018-02-24T22:55:02.375Z,102732.64
2018-02-24T22:57:37.319Z,102733.97
2018-02-24T23:00:13.816Z,102734.86
2018-02-24T23:02:48.963Z,102743.65
2018-02-24T23:05:23.995Z,102744.59
2018-02-24T23:07:59.035Z,102747.23
2018-02-24T23:10:34.487Z,102745.95
2018-02-24T23:13:09.584Z,102740.64
2018-02-24T23:15:44.556Z,102739.23
2018-02-24T23:18:19.846Z,102734.39
2018-02-24T23:20:55.047Z,102749.80
2018-02-24T23:23:29.961Z,102743.17
2018-02-24T23:26:04.945Z,102748.84
2018-02-24T23:28:40.220Z,102753.63
2018-02-24T23:31:15.100Z,102752.77
2018-02-24T23:33:50.207Z,102755.05
2018-02-24T23:36:25.552Z,102760.80
2018-02-24T23:39:00.445Z,102763.02
2018-02-24T23:41:35.361Z,102765.23
2018-02-24T23:44:10.893Z,102753.36
2018-02-24T23:46:46.620Z,102755.52
2018-02-24T23:49:21.155Z,102756.92
2018-02-24T23:51:56.129Z,102754.08
2018-02-24T23:54:31.356Z,102753.73
2018-02-24T23:57:06.128Z,102754.17
2018-02-24T23:59:41.288Z,102765.18
